sensor_id;sensor_type;location;lat;lon;timestamp;temperature;humidity
56542;DHT22;42438;53.174;6.730;2023-05-07T00:00:29;11.60;1.00
56542;DHT22;42438;53.174;6.730;2023-05-07T00:03:00;11.60;1.00
56542;DHT22;42438;53.174;6.730;2023-05-07T00:05:31;11.60;1.00
56542;DHT22;42438;53.174;6.730;2023-05-07T00:08:02;11.60;1.00
56542;DHT22;42438;53.174;6.730;2023-05-07T00:10:33;11.60;1.00
56542;DHT22;42438;53.174;6.730;2023-05-07T00:13:04;11.60;1.00
56542;DHT22;42438;53.174;6.730;2023-05-07T00:15:34;11.60;1.00
56542;DHT22;42438;53.174;6.730;2023-05-07T00:18:05;11.60;1.00
56542;DHT22;42438;53.174;6.730;2023-05-07T00:20:35;11.50;1.00
56542;DHT22;42438;53.174;6.730;2023-05-07T00:23:06;11.50;1.00
56542;DHT22;42438;53.174;6.730;2023-05-07T00:25:37;11.50;1.00
56542;DHT22;42438;53.174;6.730;2023-05-07T00:28:07;11.50;1.00
56542;DHT22;42438;53.174;6.730;2023-05-07T00:30:38;11.50;1.00
56542;DHT22;42438;53.174;6.730;2023-05-07T00:33:08;11.50;1.00
56542;DHT22;42438;53.174;6.730;2023-05-07T00:35:39;11.50;1.00
56542;DHT22;42438;53.174;6.730;2023-05-07T00:38:10;11.50;1.00
56542;DHT22;42438;53.174;6.730;2023-05-07T00:40:40;11.50;1.00
56542;DHT22;42438;53.174;6.730;2023-05-07T00:43:11;11.50;1.00
56542;DHT22;42438;53.174;6.730;2023-05-07T00:45:43;11.50;1.00
56542;DHT22;42438;53.174;6.730;2023-05-07T00:48:13;11.40;1.00
56542;DHT22;42438;53.174;6.730;2023-05-07T00:50:45;11.50;1.00
56542;DHT22;42438;53.174;6.730;2023-05-07T00:53:16;11.40;1.00
56542;DHT22;42438;53.174;6.730;2023-05-07T00:55:46;11.40;1.00
56542;DHT22;42438;53.174;6.730;2023-05-07T00:58:18;11.40;1.00
56542;DHT22;42438;53.174;6.730;2023-05-07T01:00:48;11.40;1.00
56542;DHT22;42438;53.174;6.730;2023-05-07T01:03:19;11.40;1.00
56542;DHT22;42438;53.174;6.730;2023-05-07T01:05:52;11.40;1.00
56542;DHT22;42438;53.174;6.730;2023-05-07T01:08:24;11.40;1.00
56542;DHT22;42438;53.174;6.730;2023-05-07T01:10:57;11.40;1.00
56542;DHT22;42438;53.174;6.730;2023-05-07T01:13:28;11.40;1.00
56542;DHT22;42438;53.174;6.730;2023-05-07T01:15:59;11.40;1.00
56542;DHT22;42438;53.174;6.730;2023-05-07T01:18:30;11.30;1.00
56542;DHT22;42438;53.174;6.730;2023-05-07T01:21:02;11.30;1.00
56542;DHT22;42438;53.174;6.730;2023-05-07T01:23:34;11.30;1.00
56542;DHT22;42438;53.174;6.730;2023-05-07T01:26:05;11.30;1.00
56542;DHT22;42438;53.174;6.730;2023-05-07T01:28:36;11.30;1.00
56542;DHT22;42438;53.174;6.730;2023-05-07T01:31:08;11.30;1.00
56542;DHT22;42438;53.174;6.730;2023-05-07T01:33:40;11.30;1.00
56542;DHT22;42438;53.174;6.730;2023-05-07T01:36:13;11.20;1.00
56542;DHT22;42438;53.174;6.730;2023-05-07T01:38:44;11.20;1.00
56542;DHT22;42438;53.174;6.730;2023-05-07T01:41:15;11.20;1.00
56542;DHT22;42438;53.174;6.730;2023-05-07T01:43:47;11.60;1.00
56542;DHT22;42438;53.174;6.730;2023-05-07T01:46:18;11.20;1.00
56542;DHT22;42438;53.174;6.730;2023-05-07T01:48:50;11.20;1.00
56542;DHT22;42438;53.174;6.730;2023-05-07T01:51:21;11.20;1.00
56542;DHT22;42438;53.174;6.730;2023-05-07T01:53:53;11.20;1.00
56542;DHT22;42438;53.174;6.730;2023-05-07T01:56:24;11.10;1.00
56542;DHT22;42438;53.174;6.730;2023-05-07T01:58:55;11.10;1.00
56542;DHT22;42438;53.174;6.730;2023-05-07T02:01:25;11.10;1.00
56542;DHT22;42438;53.174;6.730;2023-05-07T02:03:56;11.10;1.00
56542;DHT22;42438;53.174;6.730;2023-05-07T02:06:27;11.10;1.00
56542;DHT22;42438;53.174;6.730;2023-05-07T02:08:57;11.10;1.00
56542;DHT22;42438;53.174;6.730;2023-05-07T02:11:28;11.10;1.00
56542;DHT22;42438;53.174;6.730;2023-05-07T02:13:58;11.10;1.00
56542;DHT22;42438;53.174;6.730;2023-05-07T02:16:29;11.10;1.00
56542;DHT22;42438;53.174;6.730;2023-05-07T02:19:00;11.10;1.00
56542;DHT22;42438;53.174;6.730;2023-05-07T02:21:30;11.10;1.00
56542;DHT22;42438;53.174;6.730;2023-05-07T02:24:01;11.10;1.00
56542;DHT22;42438;53.174;6.730;2023-05-07T02:26:31;11.10;1.00
56542;DHT22;42438;53.174;6.730;2023-05-07T02:29:02;11.00;1.00
56542;DHT22;42438;53.174;6.730;2023-05-07T02:31:33;11.10;1.00
56542;DHT22;42438;53.174;6.730;2023-05-07T02:34:04;11.50;1.00
56542;DHT22;42438;53.174;6.730;2023-05-07T02:36:34;11.50;1.00
56542;DHT22;42438;53.174;6.730;2023-05-07T02:39:05;11.00;1.00
56542;DHT22;42438;53.174;6.730;2023-05-07T02:41:36;11.00;1.00
56542;DHT22;42438;53.174;6.730;2023-05-07T02:44:06;11.00;1.00
56542;DHT22;42438;53.174;6.730;2023-05-07T02:46:37;11.00;1.00
56542;DHT22;42438;53.174;6.730;2023-05-07T02:49:08;11.00;1.00
56542;DHT22;42438;53.174;6.730;2023-05-07T02:51:38;10.90;1.00
56542;DHT22;42438;53.174;6.730;2023-05-07T02:54:09;10.90;1.00
56542;DHT22;42438;53.174;6.730;2023-05-07T02:56:39;10.90;1.00
56542;DHT22;42438;53.174;6.730;2023-05-07T02:59:10;10.90;1.00
56542;DHT22;42438;53.174;6.730;2023-05-07T03:01:41;11.30;1.00
56542;DHT22;42438;53.174;6.730;2023-05-07T03:04:14;11.30;1.00
56542;DHT22;42438;53.174;6.730;2023-05-07T03:06:44;10.90;1.00
56542;DHT22;42438;53.174;6.730;2023-05-07T03:09:15;10.90;1.00
56542;DHT22;42438;53.174;6.730;2023-05-07T03:11:46;10.80;1.00
56542;DHT22;42438;53.174;6.730;2023-05-07T03:14:17;10.90;1.00
56542;DHT22;42438;53.174;6.730;2023-05-07T03:16:49;10.90;1.00
56542;DHT22;42438;53.174;6.730;2023-05-07T03:19:19;10.80;1.00
56542;DHT22;42438;53.174;6.730;2023-05-07T03:21:50;10.90;1.00
56542;DHT22;42438;53.174;6.730;2023-05-07T03:24:21;10.80;1.00
56542;DHT22;42438;53.174;6.730;2023-05-07T03:26:51;10.80;1.00
56542;DHT22;42438;53.174;6.730;2023-05-07T03:29:22;10.70;1.00
56542;DHT22;42438;53.174;6.730;2023-05-07T03:31:52;10.70;1.00
56542;DHT22;42438;53.174;6.730;2023-05-07T03:34:23;10.70;1.00
56542;DHT22;42438;53.174;6.730;2023-05-07T03:36:54;10.70;1.00
56542;DHT22;42438;53.174;6.730;2023-05-07T03:39:25;10.70;1.00
56542;DHT22;42438;53.174;6.730;2023-05-07T03:41:56;10.60;1.00
56542;DHT22;42438;53.174;6.730;2023-05-07T03:44:27;10.70;1.00
56542;DHT22;42438;53.174;6.730;2023-05-07T03:46:58;10.60;1.00
56542;DHT22;42438;53.174;6.730;2023-05-07T03:49:28;10.60;1.00
56542;DHT22;42438;53.174;6.730;2023-05-07T03:51:59;10.60;1.00
56542;DHT22;42438;53.174;6.730;2023-05-07T03:54:30;10.60;1.00
56542;DHT22;42438;53.174;6.730;2023-05-07T03:57:00;10.60;1.00
56542;DHT22;42438;53.174;6.730;2023-05-07T03:59:32;10.60;1.00
56542;DHT22;42438;53.174;6.730;2023-05-07T04:02:03;10.60;1.00
56542;DHT22;42438;53.174;6.730;2023-05-07T04:04:33;10.60;1.00
56542;DHT22;42438;53.174;6.730;2023-05-07T04:07:04;10.60;1.00
56542;DHT22;42438;53.174;6.730;2023-05-07T04:09:35;10.60;1.00
56542;DHT22;42438;53.174;6.730;2023-05-07T04:12:06;10.60;1.00
56542;DHT22;42438;53.174;6.730;2023-05-07T04:14:36;10.50;1.00
56542;DHT22;42438;53.174;6.730;2023-05-07T04:17:07;10.50;1.00
56542;DHT22;42438;53.174;6.730;2023-05-07T04:19:40;10.50;1.00
56542;DHT22;42438;53.174;6.730;2023-05-07T04:22:15;10.50;1.00
56542;DHT22;42438;53.174;6.730;2023-05-07T04:24:46;10.50;1.00
56542;DHT22;42438;53.174;6.730;2023-05-07T04:27:16;10.50;1.00
56542;DHT22;42438;53.174;6.730;2023-05-07T04:29:47;10.40;1.00
56542;DHT22;42438;53.174;6.730;2023-05-07T04:32:18;10.50;1.00
56542;DHT22;42438;53.174;6.730;2023-05-07T04:34:48;10.40;1.00
56542;DHT22;42438;53.174;6.730;2023-05-07T04:37:19;10.50;1.00
56542;DHT22;42438;53.174;6.730;2023-05-07T04:39:49;10.40;1.00
56542;DHT22;42438;53.174;6.730;2023-05-07T04:42:20;10.40;1.00
56542;DHT22;42438;53.174;6.730;2023-05-07T04:44:53;10.40;1.00
56542;DHT22;42438;53.174;6.730;2023-05-07T04:47:24;10.40;1.00
56542;DHT22;42438;53.174;6.730;2023-05-07T04:49:54;10.40;1.00
56542;DHT22;42438;53.174;6.730;2023-05-07T04:52:25;10.40;1.00
56542;DHT22;42438;53.174;6.730;2023-05-07T04:54:56;10.90;1.00
56542;DHT22;42438;53.174;6.730;2023-05-07T04:57:27;10.40;1.00
56542;DHT22;42438;53.174;6.730;2023-05-07T04:59:57;10.40;1.00
56542;DHT22;42438;53.174;6.730;2023-05-07T05:02:28;10.40;1.00
56542;DHT22;42438;53.174;6.730;2023-05-07T05:04:59;10.40;1.00
56542;DHT22;42438;53.174;6.730;2023-05-07T05:07:30;10.40;1.00
56542;DHT22;42438;53.174;6.730;2023-05-07T05:10:02;10.40;1.00
56542;DHT22;42438;53.174;6.730;2023-05-07T05:12:33;10.50;1.00
56542;DHT22;42438;53.174;6.730;2023-05-07T05:15:05;10.80;1.00
56542;DHT22;42438;53.174;6.730;2023-05-07T05:17:35;10.50;1.00
56542;DHT22;42438;53.174;6.730;2023-05-07T05:20:07;10.50;1.00
56542;DHT22;42438;53.174;6.730;2023-05-07T05:22:38;10.50;1.00
56542;DHT22;42438;53.174;6.730;2023-05-07T05:25:09;10.60;1.00
56542;DHT22;42438;53.174;6.730;2023-05-07T05:27:39;10.50;1.00
56542;DHT22;42438;53.174;6.730;2023-05-07T05:30:10;10.60;1.00
56542;DHT22;42438;53.174;6.730;2023-05-07T05:32:41;10.60;1.00
56542;DHT22;42438;53.174;6.730;2023-05-07T05:35:12;10.60;1.00
56542;DHT22;42438;53.174;6.730;2023-05-07T05:37:42;11.00;1.00
56542;DHT22;42438;53.174;6.730;2023-05-07T05:40:13;10.70;1.00
56542;DHT22;42438;53.174;6.730;2023-05-07T05:42:44;10.80;1.00
56542;DHT22;42438;53.174;6.730;2023-05-07T05:45:14;10.70;1.00
56542;DHT22;42438;53.174;6.730;2023-05-07T05:47:45;10.70;1.00
56542;DHT22;42438;53.174;6.730;2023-05-07T05:50:16;10.70;1.00
56542;DHT22;42438;53.174;6.730;2023-05-07T05:52:46;10.70;1.00
56542;DHT22;42438;53.174;6.730;2023-05-07T05:55:17;10.80;1.00
56542;DHT22;42438;53.174;6.730;2023-05-07T05:57:48;10.80;1.00
56542;DHT22;42438;53.174;6.730;2023-05-07T06:00:19;10.80;1.00
56542;DHT22;42438;53.174;6.730;2023-05-07T06:02:52;10.80;1.00
56542;DHT22;42438;53.174;6.730;2023-05-07T06:05:23;10.80;1.00
56542;DHT22;42438;53.174;6.730;2023-05-07T06:07:53;10.80;1.00
56542;DHT22;42438;53.174;6.730;2023-05-07T06:10:24;10.80;1.00
56542;DHT22;42438;53.174;6.730;2023-05-07T06:12:56;10.90;1.00
56542;DHT22;42438;53.174;6.730;2023-05-07T06:15:26;11.20;1.00
56542;DHT22;42438;53.174;6.730;2023-05-07T06:17:57;10.90;1.00
56542;DHT22;42438;53.174;6.730;2023-05-07T06:20:28;10.90;1.00
56542;DHT22;42438;53.174;6.730;2023-05-07T06:22:58;10.90;1.00
56542;DHT22;42438;53.174;6.730;2023-05-07T06:25:29;11.00;1.00
56542;DHT22;42438;53.174;6.730;2023-05-07T06:27:59;10.90;1.00
56542;DHT22;42438;53.174;6.730;2023-05-07T06:30:30;11.00;1.00
56542;DHT22;42438;53.174;6.730;2023-05-07T06:33:01;11.00;1.00
56542;DHT22;42438;53.174;6.730;2023-05-07T06:35:31;11.00;1.00
56542;DHT22;42438;53.174;6.730;2023-05-07T06:38:02;11.00;1.00
56542;DHT22;42438;53.174;6.730;2023-05-07T06:40:33;11.00;1.00
56542;DHT22;42438;53.174;6.730;2023-05-07T06:43:03;11.00;1.00
56542;DHT22;42438;53.174;6.730;2023-05-07T06:45:34;11.10;1.00
56542;DHT22;42438;53.174;6.730;2023-05-07T06:48:04;11.10;1.00
56542;DHT22;42438;53.174;6.730;2023-05-07T06:50:35;11.10;1.00
56542;DHT22;42438;53.174;6.730;2023-05-07T06:53:06;11.10;1.00
56542;DHT22;42438;53.174;6.730;2023-05-07T06:55:36;11.10;1.00
56542;DHT22;42438;53.174;6.730;2023-05-07T06:58:08;11.20;1.00
56542;DHT22;42438;53.174;6.730;2023-05-07T07:00:39;11.20;1.00
56542;DHT22;42438;53.174;6.730;2023-05-07T07:03:11;11.40;1.00
56542;DHT22;42438;53.174;6.730;2023-05-07T07:05:41;11.40;1.00
56542;DHT22;42438;53.174;6.730;2023-05-07T07:08:12;11.50;1.00
56542;DHT22;42438;53.174;6.730;2023-05-07T07:10:43;11.60;1.00
56542;DHT22;42438;53.174;6.730;2023-05-07T07:13:14;11.80;1.00
56542;DHT22;42438;53.174;6.730;2023-05-07T07:15:44;11.80;1.00
56542;DHT22;42438;53.174;6.730;2023-05-07T07:18:15;11.80;1.00
56542;DHT22;42438;53.174;6.730;2023-05-07T07:20:46;11.80;1.00
56542;DHT22;42438;53.174;6.730;2023-05-07T07:23:16;11.90;1.00
56542;DHT22;42438;53.174;6.730;2023-05-07T07:25:47;11.90;1.00
56542;DHT22;42438;53.174;6.730;2023-05-07T07:28:20;11.90;1.00
56542;DHT22;42438;53.174;6.730;2023-05-07T07:30:51;12.00;1.00
56542;DHT22;42438;53.174;6.730;2023-05-07T07:33:21;12.00;1.00
56542;DHT22;42438;53.174;6.730;2023-05-07T07:35:52;12.00;1.00
56542;DHT22;42438;53.174;6.730;2023-05-07T07:38:23;12.00;1.00
56542;DHT22;42438;53.174;6.730;2023-05-07T07:40:53;12.00;1.00
56542;DHT22;42438;53.174;6.730;2023-05-07T07:43:24;12.20;1.00
56542;DHT22;42438;53.174;6.730;2023-05-07T07:45:55;12.10;1.00
56542;DHT22;42438;53.174;6.730;2023-05-07T07:48:26;12.10;1.00
56542;DHT22;42438;53.174;6.730;2023-05-07T07:50:56;12.00;1.00
56542;DHT22;42438;53.174;6.730;2023-05-07T07:53:27;12.00;1.00
56542;DHT22;42438;53.174;6.730;2023-05-07T07:55:58;12.10;1.00
56542;DHT22;42438;53.174;6.730;2023-05-07T07:58:28;12.10;1.00
56542;DHT22;42438;53.174;6.730;2023-05-07T08:00:59;12.20;1.00
56542;DHT22;42438;53.174;6.730;2023-05-07T08:03:29;12.20;1.00
56542;DHT22;42438;53.174;6.730;2023-05-07T08:06:02;12.40;1.00
56542;DHT22;42438;53.174;6.730;2023-05-07T08:08:33;12.30;1.00
56542;DHT22;42438;53.174;6.730;2023-05-07T08:11:04;12.40;1.00
56542;DHT22;42438;53.174;6.730;2023-05-07T08:13:34;12.50;99.90
56542;DHT22;42438;53.174;6.730;2023-05-07T08:16:05;12.60;99.90
56542;DHT22;42438;53.174;6.730;2023-05-07T08:18:36;12.80;99.90
56542;DHT22;42438;53.174;6.730;2023-05-07T08:21:07;12.90;99.90
56542;DHT22;42438;53.174;6.730;2023-05-07T08:23:37;13.00;99.90
56542;DHT22;42438;53.174;6.730;2023-05-07T08:26:08;13.20;99.90
56542;DHT22;42438;53.174;6.730;2023-05-07T08:28:39;13.30;99.90
56542;DHT22;42438;53.174;6.730;2023-05-07T08:31:10;13.40;99.90
56542;DHT22;42438;53.174;6.730;2023-05-07T08:33:40;13.60;99.90
56542;DHT22;42438;53.174;6.730;2023-05-07T08:36:11;13.80;53.70
56542;DHT22;42438;53.174;6.730;2023-05-07T08:38:42;13.90;1.00
56542;DHT22;42438;53.174;6.730;2023-05-07T08:41:14;13.90;99.90
56542;DHT22;42438;53.174;6.730;2023-05-07T08:43:48;13.90;99.90
56542;DHT22;42438;53.174;6.730;2023-05-07T08:46:21;14.10;75.60
56542;DHT22;42438;53.174;6.730;2023-05-07T08:48:52;14.10;1.00
56542;DHT22;42438;53.174;6.730;2023-05-07T08:51:22;14.20;1.00
56542;DHT22;42438;53.174;6.730;2023-05-07T08:53:53;14.20;99.90
56542;DHT22;42438;53.174;6.730;2023-05-07T08:56:24;14.30;1.00
56542;DHT22;42438;53.174;6.730;2023-05-07T08:58:55;14.40;99.90
56542;DHT22;42438;53.174;6.730;2023-05-07T09:01:29;14.50;99.90
56542;DHT22;42438;53.174;6.730;2023-05-07T09:03:59;14.50;1.00
56542;DHT22;42438;53.174;6.730;2023-05-07T09:06:30;14.40;99.90
56542;DHT22;42438;53.174;6.730;2023-05-07T09:09:01;14.40;99.90
56542;DHT22;42438;53.174;6.730;2023-05-07T09:11:35;14.60;53.30
56542;DHT22;42438;53.174;6.730;2023-05-07T09:14:06;14.10;99.90
56542;DHT22;42438;53.174;6.730;2023-05-07T09:16:36;14.10;1.00
56542;DHT22;42438;53.174;6.730;2023-05-07T09:19:07;14.20;99.90
56542;DHT22;42438;53.174;6.730;2023-05-07T09:21:38;14.30;99.90
56542;DHT22;42438;53.174;6.730;2023-05-07T09:24:08;14.40;1.00
56542;DHT22;42438;53.174;6.730;2023-05-07T09:26:39;14.50;99.90
56542;DHT22;42438;53.174;6.730;2023-05-07T09:29:10;14.70;99.90
56542;DHT22;42438;53.174;6.730;2023-05-07T09:31:41;15.00;1.00
56542;DHT22;42438;53.174;6.730;2023-05-07T09:34:11;15.20;1.00
56542;DHT22;42438;53.174;6.730;2023-05-07T09:36:42;15.40;1.00
56542;DHT22;42438;53.174;6.730;2023-05-07T09:39:13;15.30;99.90
56542;DHT22;42438;53.174;6.730;2023-05-07T09:41:45;15.40;99.90
56542;DHT22;42438;53.174;6.730;2023-05-07T09:44:16;15.40;99.90
56542;DHT22;42438;53.174;6.730;2023-05-07T09:46:54;15.40;99.90
56542;DHT22;42438;53.174;6.730;2023-05-07T09:49:29;15.40;99.90
56542;DHT22;42438;53.174;6.730;2023-05-07T09:52:04;15.60;99.90
56542;DHT22;42438;53.174;6.730;2023-05-07T09:54:36;15.60;1.00
56542;DHT22;42438;53.174;6.730;2023-05-07T09:57:10;15.60;1.00
56542;DHT22;42438;53.174;6.730;2023-05-07T09:59:43;15.70;1.00
56542;DHT22;42438;53.174;6.730;2023-05-07T10:02:14;16.00;1.00
56542;DHT22;42438;53.174;6.730;2023-05-07T10:04:46;16.20;99.90
56542;DHT22;42438;53.174;6.730;2023-05-07T10:07:20;16.50;99.90
56542;DHT22;42438;53.174;6.730;2023-05-07T10:09:51;16.60;99.90
56542;DHT22;42438;53.174;6.730;2023-05-07T10:12:23;16.80;99.90
56542;DHT22;42438;53.174;6.730;2023-05-07T10:14:54;16.90;99.90
56542;DHT22;42438;53.174;6.730;2023-05-07T10:17:26;16.80;99.90
56542;DHT22;42438;53.174;6.730;2023-05-07T10:19:57;16.70;99.90
56542;DHT22;42438;53.174;6.730;2023-05-07T10:22:28;16.80;99.90
56542;DHT22;42438;53.174;6.730;2023-05-07T10:25:02;16.80;99.90
56542;DHT22;42438;53.174;6.730;2023-05-07T10:27:34;16.70;99.90
56542;DHT22;42438;53.174;6.730;2023-05-07T10:30:34;16.70;96.30
56542;DHT22;42438;53.174;6.730;2023-05-07T10:33:10;16.70;58.70
56542;DHT22;42438;53.174;6.730;2023-05-07T10:35:44;16.80;79.90
56542;DHT22;42438;53.174;6.730;2023-05-07T10:38:15;16.80;85.70
56542;DHT22;42438;53.174;6.730;2023-05-07T10:40:46;16.70;10.40
56542;DHT22;42438;53.174;6.730;2023-05-07T10:43:16;16.70;89.40
56542;DHT22;42438;53.174;6.730;2023-05-07T10:46:26;16.70;95.10
56542;DHT22;42438;53.174;6.730;2023-05-07T10:51:34;16.70;88.20
56542;DHT22;42438;53.174;6.730;2023-05-07T10:56:43;16.80;76.10
56542;DHT22;42438;53.174;6.730;2023-05-07T10:59:30;16.90;68.00
56542;DHT22;42438;53.174;6.730;2023-05-07T11:02:04;16.90;45.70
56542;DHT22;42438;53.174;6.730;2023-05-07T11:04:37;17.00;52.00
56542;DHT22;42438;53.174;6.730;2023-05-07T11:17:59;17.90;8.20
56542;DHT22;42438;53.174;6.730;2023-05-07T11:26:08;18.10;1.00
56542;DHT22;42438;53.174;6.730;2023-05-07T11:28:40;18.10;1.00
56542;DHT22;42438;53.174;6.730;2023-05-07T11:31:11;18.10;1.00
56542;DHT22;42438;53.174;6.730;2023-05-07T11:33:43;18.20;1.00
56542;DHT22;42438;53.174;6.730;2023-05-07T11:36:15;18.30;1.00
56542;DHT22;42438;53.174;6.730;2023-05-07T11:38:46;18.40;1.00
56542;DHT22;42438;53.174;6.730;2023-05-07T11:41:17;18.60;1.00
56542;DHT22;42438;53.174;6.730;2023-05-07T11:43:56;18.60;1.00
56542;DHT22;42438;53.174;6.730;2023-05-07T11:46:28;18.70;1.00
56542;DHT22;42438;53.174;6.730;2023-05-07T11:49:00;18.80;1.00
56542;DHT22;42438;53.174;6.730;2023-05-07T11:51:31;18.90;1.00
56542;DHT22;42438;53.174;6.730;2023-05-07T11:54:04;19.00;1.00
56542;DHT22;42438;53.174;6.730;2023-05-07T11:56:38;19.00;1.00
56542;DHT22;42438;53.174;6.730;2023-05-07T11:59:09;19.00;1.00
56542;DHT22;42438;53.174;6.730;2023-05-07T12:01:40;19.20;1.00
56542;DHT22;42438;53.174;6.730;2023-05-07T12:04:11;19.30;1.00
56542;DHT22;42438;53.174;6.730;2023-05-07T12:06:41;19.40;1.00
56542;DHT22;42438;53.174;6.730;2023-05-07T12:09:12;19.50;1.00
56542;DHT22;42438;53.174;6.730;2023-05-07T12:11:46;19.60;1.00
56542;DHT22;42438;53.174;6.730;2023-05-07T12:14:16;19.70;1.00
56542;DHT22;42438;53.174;6.730;2023-05-07T12:16:47;19.60;1.00
56542;DHT22;42438;53.174;6.730;2023-05-07T12:19:18;19.60;1.00
56542;DHT22;42438;53.174;6.730;2023-05-07T12:21:48;19.80;1.00
56542;DHT22;42438;53.174;6.730;2023-05-07T12:24:19;19.90;1.00
56542;DHT22;42438;53.174;6.730;2023-05-07T12:26:50;19.90;1.00
56542;DHT22;42438;53.174;6.730;2023-05-07T12:29:22;20.10;1.00
56542;DHT22;42438;53.174;6.730;2023-05-07T12:31:53;20.40;1.00
56542;DHT22;42438;53.174;6.730;2023-05-07T12:34:23;20.40;1.00
56542;DHT22;42438;53.174;6.730;2023-05-07T12:36:54;20.50;1.00
56542;DHT22;42438;53.174;6.730;2023-05-07T12:39:26;20.70;1.00
56542;DHT22;42438;53.174;6.730;2023-05-07T12:41:58;20.80;1.00
56542;DHT22;42438;53.174;6.730;2023-05-07T12:44:31;21.00;1.00
56542;DHT22;42438;53.174;6.730;2023-05-07T12:47:02;21.10;1.00
56542;DHT22;42438;53.174;6.730;2023-05-07T12:49:34;21.20;1.00
56542;DHT22;42438;53.174;6.730;2023-05-07T12:52:08;21.40;1.00
56542;DHT22;42438;53.174;6.730;2023-05-07T12:54:38;21.60;1.00
56542;DHT22;42438;53.174;6.730;2023-05-07T12:57:10;21.40;1.00
56542;DHT22;42438;53.174;6.730;2023-05-07T12:59:41;21.20;1.00
56542;DHT22;42438;53.174;6.730;2023-05-07T13:02:12;21.10;1.00
56542;DHT22;42438;53.174;6.730;2023-05-07T13:04:43;20.90;1.00
56542;DHT22;42438;53.174;6.730;2023-05-07T13:07:13;20.70;1.00
56542;DHT22;42438;53.174;6.730;2023-05-07T13:09:44;20.70;1.00
56542;DHT22;42438;53.174;6.730;2023-05-07T13:12:15;20.70;1.00
56542;DHT22;42438;53.174;6.730;2023-05-07T13:14:45;20.70;1.00
56542;DHT22;42438;53.174;6.730;2023-05-07T13:17:16;20.60;1.00
56542;DHT22;42438;53.174;6.730;2023-05-07T13:19:46;20.60;1.00
56542;DHT22;42438;53.174;6.730;2023-05-07T13:22:17;20.70;1.00
56542;DHT22;42438;53.174;6.730;2023-05-07T13:24:48;20.80;1.00
56542;DHT22;42438;53.174;6.730;2023-05-07T13:27:18;20.80;1.00
56542;DHT22;42438;53.174;6.730;2023-05-07T13:29:50;20.70;1.00
56542;DHT22;42438;53.174;6.730;2023-05-07T13:32:20;20.70;1.00
56542;DHT22;42438;53.174;6.730;2023-05-07T13:34:51;20.80;1.00
56542;DHT22;42438;53.174;6.730;2023-05-07T13:37:21;20.80;1.00
56542;DHT22;42438;53.174;6.730;2023-05-07T13:39:52;20.90;1.00
56542;DHT22;42438;53.174;6.730;2023-05-07T13:42:22;21.00;1.00
56542;DHT22;42438;53.174;6.730;2023-05-07T13:44:53;21.10;1.00
56542;DHT22;42438;53.174;6.730;2023-05-07T13:47:24;21.20;1.00
56542;DHT22;42438;53.174;6.730;2023-05-07T13:49:55;21.20;1.00
56542;DHT22;42438;53.174;6.730;2023-05-07T13:52:25;21.20;1.00
56542;DHT22;42438;53.174;6.730;2023-05-07T13:54:56;21.30;1.00
56542;DHT22;42438;53.174;6.730;2023-05-07T13:57:29;21.30;1.00
56542;DHT22;42438;53.174;6.730;2023-05-07T13:59:59;21.40;1.00
56542;DHT22;42438;53.174;6.730;2023-05-07T14:02:30;21.40;1.00
56542;DHT22;42438;53.174;6.730;2023-05-07T14:05:01;21.40;1.00
56542;DHT22;42438;53.174;6.730;2023-05-07T14:07:32;21.30;1.00
56542;DHT22;42438;53.174;6.730;2023-05-07T14:10:03;21.30;1.00
56542;DHT22;42438;53.174;6.730;2023-05-07T14:12:33;21.20;1.00
56542;DHT22;42438;53.174;6.730;2023-05-07T14:15:04;21.10;1.00
56542;DHT22;42438;53.174;6.730;2023-05-07T14:17:35;21.10;1.00
56542;DHT22;42438;53.174;6.730;2023-05-07T14:20:06;21.20;1.00
56542;DHT22;42438;53.174;6.730;2023-05-07T14:22:37;21.20;1.00
56542;DHT22;42438;53.174;6.730;2023-05-07T14:25:08;21.20;1.00
56542;DHT22;42438;53.174;6.730;2023-05-07T14:27:40;21.40;1.00
56542;DHT22;42438;53.174;6.730;2023-05-07T14:30:11;21.30;1.00
56542;DHT22;42438;53.174;6.730;2023-05-07T14:32:41;21.30;1.00
56542;DHT22;42438;53.174;6.730;2023-05-07T14:35:12;21.30;1.00
56542;DHT22;42438;53.174;6.730;2023-05-07T14:37:43;21.20;1.00
56542;DHT22;42438;53.174;6.730;2023-05-07T14:40:14;21.10;1.00
56542;DHT22;42438;53.174;6.730;2023-05-07T14:42:45;21.10;1.00
56542;DHT22;42438;53.174;6.730;2023-05-07T14:45:15;21.00;1.00
56542;DHT22;42438;53.174;6.730;2023-05-07T14:47:46;21.00;1.00
56542;DHT22;42438;53.174;6.730;2023-05-07T14:50:17;21.10;1.00
56542;DHT22;42438;53.174;6.730;2023-05-07T14:52:48;21.20;1.00
56542;DHT22;42438;53.174;6.730;2023-05-07T14:55:18;21.30;1.00
56542;DHT22;42438;53.174;6.730;2023-05-07T14:57:49;21.40;1.00
56542;DHT22;42438;53.174;6.730;2023-05-07T15:00:20;21.50;1.00
56542;DHT22;42438;53.174;6.730;2023-05-07T15:02:50;21.60;1.00
56542;DHT22;42438;53.174;6.730;2023-05-07T15:05:21;21.80;1.00
56542;DHT22;42438;53.174;6.730;2023-05-07T15:07:52;21.80;1.00
56542;DHT22;42438;53.174;6.730;2023-05-07T15:10:22;21.80;1.00
56542;DHT22;42438;53.174;6.730;2023-05-07T15:12:53;21.60;1.00
56542;DHT22;42438;53.174;6.730;2023-05-07T15:15:24;21.50;1.00
56542;DHT22;42438;53.174;6.730;2023-05-07T15:17:54;21.20;1.00
56542;DHT22;42438;53.174;6.730;2023-05-07T15:20:25;21.10;1.00
56542;DHT22;42438;53.174;6.730;2023-05-07T15:22:56;21.00;1.00
56542;DHT22;42438;53.174;6.730;2023-05-07T15:25:27;20.80;1.00
56542;DHT22;42438;53.174;6.730;2023-05-07T15:27:57;20.80;1.00
56542;DHT22;42438;53.174;6.730;2023-05-07T15:30:28;20.70;1.00
56542;DHT22;42438;53.174;6.730;2023-05-07T15:33:00;20.60;1.00
56542;DHT22;42438;53.174;6.730;2023-05-07T15:35:31;20.70;1.00
56542;DHT22;42438;53.174;6.730;2023-05-07T15:38:02;20.70;1.00
56542;DHT22;42438;53.174;6.730;2023-05-07T15:40:33;20.70;1.00
56542;DHT22;42438;53.174;6.730;2023-05-07T15:43:05;20.70;1.00
56542;DHT22;42438;53.174;6.730;2023-05-07T15:45:40;20.80;1.00
56542;DHT22;42438;53.174;6.730;2023-05-07T15:48:11;20.80;1.00
56542;DHT22;42438;53.174;6.730;2023-05-07T15:50:42;20.80;1.00
56542;DHT22;42438;53.174;6.730;2023-05-07T15:53:12;20.70;1.00
56542;DHT22;42438;53.174;6.730;2023-05-07T15:55:43;20.70;1.00
56542;DHT22;42438;53.174;6.730;2023-05-07T15:58:14;20.70;1.00
56542;DHT22;42438;53.174;6.730;2023-05-07T16:00:45;20.60;1.00
56542;DHT22;42438;53.174;6.730;2023-05-07T16:03:15;20.60;1.00
56542;DHT22;42438;53.174;6.730;2023-05-07T16:05:48;20.60;1.00
56542;DHT22;42438;53.174;6.730;2023-05-07T16:08:18;20.60;1.00
56542;DHT22;42438;53.174;6.730;2023-05-07T16:10:49;20.50;1.00
56542;DHT22;42438;53.174;6.730;2023-05-07T16:13:20;20.50;1.00
56542;DHT22;42438;53.174;6.730;2023-05-07T16:15:58;20.40;1.00
56542;DHT22;42438;53.174;6.730;2023-05-07T16:18:29;20.40;1.00
56542;DHT22;42438;53.174;6.730;2023-05-07T16:21:00;20.20;1.00
56542;DHT22;42438;53.174;6.730;2023-05-07T16:23:30;20.20;1.00
56542;DHT22;42438;53.174;6.730;2023-05-07T16:26:01;20.20;1.00
56542;DHT22;42438;53.174;6.730;2023-05-07T16:28:31;20.00;1.00
56542;DHT22;42438;53.174;6.730;2023-05-07T16:31:02;20.00;1.00